sensor_id;sensor_type;location;lat;lon;timestamp;P1;P2;P0
49343;PMS5003;35210;41.606;-87.602;2023-06-05T00:00:27;27.60;24.20;14.60
49343;PMS5003;35210;41.606;-87.602;2023-06-05T00:02:55;38.00;33.75;23.00
49343;PMS5003;35210;41.606;-87.602;2023-06-05T00:05:23;38.00;34.75;22.75
49343;PMS5003;35210;41.606;-87.602;2023-06-05T00:07:52;40.25;34.50;25.25
49343;PMS5003;35210;41.606;-87.602;2023-06-05T00:10:22;23.60;20.60;13.60
49343;PMS5003;35210;41.606;-87.602;2023-06-05T00:12:51;15.00;13.20;6.60
49343;PMS5003;35210;41.606;-87.602;2023-06-05T00:15:20;20.60;19.40;13.00
49343;PMS5003;35210;41.606;-87.602;2023-06-05T00:17:48;26.40;23.20;16.00
49343;PMS5003;35210;41.606;-87.602;2023-06-05T00:20:17;24.60;22.40;14.80
49343;PMS5003;35210;41.606;-87.602;2023-06-05T00:22:45;21.00;18.80;11.00
49343;PMS5003;35210;41.606;-87.602;2023-06-05T00:25:14;19.60;19.60;15.60
49343;PMS5003;35210;41.606;-87.602;2023-06-05T00:27:44;25.00;22.60;14.00
49343;PMS5003;35210;41.606;-87.602;2023-06-05T00:30:12;25.20;22.60;11.60
49343;PMS5003;35210;41.606;-87.602;2023-06-05T00:32:41;31.50;29.50;18.25
49343;PMS5003;35210;41.606;-87.602;2023-06-05T00:35:09;29.80;25.00;15.80
49343;PMS5003;35210;41.606;-87.602;2023-06-05T00:37:38;25.40;23.00;16.00
49343;PMS5003;35210;41.606;-87.602;2023-06-05T00:40:06;26.40;26.00;17.00
49343;PMS5003;35210;41.606;-87.602;2023-06-05T00:42:35;21.60;20.40;13.00
49343;PMS5003;35210;41.606;-87.602;2023-06-05T00:45:05;21.00;20.00;13.80
49343;PMS5003;35210;41.606;-87.602;2023-06-05T00:47:34;15.40;14.20;6.00
49343;PMS5003;35210;41.606;-87.602;2023-06-05T00:50:02;21.00;20.00;12.60
49343;PMS5003;35210;41.606;-87.602;2023-06-05T00:52:31;20.40;18.40;13.40
49343;PMS5003;35210;41.606;-87.602;2023-06-05T00:55:01;21.20;20.80;12.20
49343;PMS5003;35210;41.606;-87.602;2023-06-05T00:57:29;23.40;23.40;13.00
49343;PMS5003;35210;41.606;-87.602;2023-06-05T01:00:00;18.80;17.20;11.20
49343;PMS5003;35210;41.606;-87.602;2023-06-05T01:02:34;22.60;19.80;12.00
49343;PMS5003;35210;41.606;-87.602;2023-06-05T01:05:02;23.60;22.60;14.00
49343;PMS5003;35210;41.606;-87.602;2023-06-05T01:07:31;24.40;21.60;13.60
49343;PMS5003;35210;41.606;-87.602;2023-06-05T01:10:04;23.60;19.60;11.80
49343;PMS5003;35210;41.606;-87.602;2023-06-05T01:12:38;19.80;17.40;11.00
49343;PMS5003;35210;41.606;-87.602;2023-06-05T01:15:10;20.20;18.20;11.60
49343;PMS5003;35210;41.606;-87.602;2023-06-05T01:17:42;20.80;19.60;12.60
49343;PMS5003;35210;41.606;-87.602;2023-06-05T01:20:12;19.20;18.40;11.20
49343;PMS5003;35210;41.606;-87.602;2023-06-05T01:22:41;20.40;19.80;12.60
49343;PMS5003;35210;41.606;-87.602;2023-06-05T01:25:10;21.60;19.20;11.00
49343;PMS5003;35210;41.606;-87.602;2023-06-05T01:27:40;17.00;17.00;11.40
49343;PMS5003;35210;41.606;-87.602;2023-06-05T01:30:15;22.40;22.20;13.40
49343;PMS5003;35210;41.606;-87.602;2023-06-05T01:32:52;23.20;20.00;12.40
49343;PMS5003;35210;41.606;-87.602;2023-06-05T01:35:28;23.80;21.60;13.40
49343;PMS5003;35210;41.606;-87.602;2023-06-05T01:37:58;15.80;15.80;11.00
49343;PMS5003;35210;41.606;-87.602;2023-06-05T01:40:33;22.80;20.00;12.20
49343;PMS5003;35210;41.606;-87.602;2023-06-05T01:43:03;20.00;16.80;9.00
49343;PMS5003;35210;41.606;-87.602;2023-06-05T01:45:32;21.20;20.60;13.00
49343;PMS5003;35210;41.606;-87.602;2023-06-05T01:48:06;19.20;18.60;10.20
49343;PMS5003;35210;41.606;-87.602;2023-06-05T01:50:36;20.80;19.20;13.00
49343;PMS5003;35210;41.606;-87.602;2023-06-05T01:53:04;22.60;21.80;12.40
49343;PMS5003;35210;41.606;-87.602;2023-06-05T01:55:34;25.40;22.80;14.40
49343;PMS5003;35210;41.606;-87.602;2023-06-05T01:58:04;20.20;20.20;11.80
49343;PMS5003;35210;41.606;-87.602;2023-06-05T02:00:32;22.00;20.20;11.60
49343;PMS5003;35210;41.606;-87.602;2023-06-05T02:03:01;18.60;16.40;8.00
49343;PMS5003;35210;41.606;-87.602;2023-06-05T02:05:29;24.00;22.00;13.20
49343;PMS5003;35210;41.606;-87.602;2023-06-05T02:07:58;21.00;20.80;12.20
49343;PMS5003;35210;41.606;-87.602;2023-06-05T02:10:31;25.40;22.40;12.20
49343;PMS5003;35210;41.606;-87.602;2023-06-05T02:13:01;23.80;23.60;15.00
49343;PMS5003;35210;41.606;-87.602;2023-06-05T02:15:29;19.60;19.60;13.20
49343;PMS5003;35210;41.606;-87.602;2023-06-05T02:17:59;23.20;21.20;12.60
49343;PMS5003;35210;41.606;-87.602;2023-06-05T02:20:28;22.40;20.00;13.00
49343;PMS5003;35210;41.606;-87.602;2023-06-05T02:22:56;26.60;24.80;13.60
49343;PMS5003;35210;41.606;-87.602;2023-06-05T02:25:25;27.00;24.20;16.00
49343;PMS5003;35210;41.606;-87.602;2023-06-05T02:27:53;24.80;20.40;11.20
49343;PMS5003;35210;41.606;-87.602;2023-06-05T02:30:24;24.00;21.20;12.40
49343;PMS5003;35210;41.606;-87.602;2023-06-05T02:32:53;24.60;23.20;13.40
49343;PMS5003;35210;41.606;-87.602;2023-06-05T02:35:26;23.40;19.80;11.00
49343;PMS5003;35210;41.606;-87.602;2023-06-05T02:37:54;20.80;20.80;13.00
49343;PMS5003;35210;41.606;-87.602;2023-06-05T02:40:23;25.40;20.80;11.20
49343;PMS5003;35210;41.606;-87.602;2023-06-05T02:42:51;22.20;21.20;12.80
49343;PMS5003;35210;41.606;-87.602;2023-06-05T02:45:20;22.40;19.00;12.40
49343;PMS5003;35210;41.606;-87.602;2023-06-05T02:47:50;24.00;20.80;14.20
49343;PMS5003;35210;41.606;-87.602;2023-06-05T02:50:18;18.40;15.80;10.20
49343;PMS5003;35210;41.606;-87.602;2023-06-05T02:52:46;26.60;22.80;12.80
49343;PMS5003;35210;41.606;-87.602;2023-06-05T02:55:15;26.40;22.60;12.40
49343;PMS5003;35210;41.606;-87.602;2023-06-05T02:57:43;26.20;23.20;13.80
49343;PMS5003;35210;41.606;-87.602;2023-06-05T03:00:14;23.20;20.80;13.00
49343;PMS5003;35210;41.606;-87.602;2023-06-05T03:02:42;17.60;16.20;11.80
49343;PMS5003;35210;41.606;-87.602;2023-06-05T03:05:16;22.60;22.60;14.40
49343;PMS5003;35210;41.606;-87.602;2023-06-05T03:07:50;25.80;23.40;14.40
49343;PMS5003;35210;41.606;-87.602;2023-06-05T03:10:21;16.00;15.40;8.00
49343;PMS5003;35210;41.606;-87.602;2023-06-05T03:12:50;27.60;26.00;13.80
49343;PMS5003;35210;41.606;-87.602;2023-06-05T03:15:18;20.20;18.60;11.40
49343;PMS5003;35210;41.606;-87.602;2023-06-05T03:17:46;24.40;23.60;15.40
49343;PMS5003;35210;41.606;-87.602;2023-06-05T03:20:16;22.20;19.40;11.20
49343;PMS5003;35210;41.606;-87.602;2023-06-05T03:22:45;27.60;23.20;12.00
49343;PMS5003;35210;41.606;-87.602;2023-06-05T03:25:13;27.40;25.80;14.00
49343;PMS5003;35210;41.606;-87.602;2023-06-05T03:27:42;27.40;24.20;13.20
49343;PMS5003;35210;41.606;-87.602;2023-06-05T03:30:12;26.40;25.20;13.80
49343;PMS5003;35210;41.606;-87.602;2023-06-05T03:32:45;32.80;26.80;15.40
49343;PMS5003;35210;41.606;-87.602;2023-06-05T03:35:14;26.40;21.00;12.40
49343;PMS5003;35210;41.606;-87.602;2023-06-05T03:37:44;24.20;22.60;12.80
49343;PMS5003;35210;41.606;-87.602;2023-06-05T03:40:12;28.80;23.20;15.00
49343;PMS5003;35210;41.606;-87.602;2023-06-05T03:42:41;23.40;22.20;11.00
49343;PMS5003;35210;41.606;-87.602;2023-06-05T03:45:09;26.00;25.60;14.80
49343;PMS5003;35210;41.606;-87.602;2023-06-05T03:47:39;28.80;26.80;15.00
49343;PMS5003;35210;41.606;-87.602;2023-06-05T03:50:10;28.60;27.20;17.40
49343;PMS5003;35210;41.606;-87.602;2023-06-05T03:52:40;24.00;24.00;13.80
49343;PMS5003;35210;41.606;-87.602;2023-06-05T03:55:09;29.40;27.20;16.80
49343;PMS5003;35210;41.606;-87.602;2023-06-05T03:57:37;34.20;27.40;16.60
49343;PMS5003;35210;41.606;-87.602;2023-06-05T04:00:06;25.80;22.20;15.00
49343;PMS5003;35210;41.606;-87.602;2023-06-05T04:02:36;26.40;26.20;16.60
49343;PMS5003;35210;41.606;-87.602;2023-06-05T04:05:05;29.80;29.00;15.00
49343;PMS5003;35210;41.606;-87.602;2023-06-05T04:07:37;29.20;28.00;17.20
49343;PMS5003;35210;41.606;-87.602;2023-06-05T04:10:07;28.80;27.20;15.80
49343;PMS5003;35210;41.606;-87.602;2023-06-05T04:12:36;28.20;25.60;16.20
49343;PMS5003;35210;41.606;-87.602;2023-06-05T04:15:05;23.00;23.00;15.80
49343;PMS5003;35210;41.606;-87.602;2023-06-05T04:17:34;29.40;27.60;16.00
49343;PMS5003;35210;41.606;-87.602;2023-06-05T04:20:03;26.20;24.20;14.40
49343;PMS5003;35210;41.606;-87.602;2023-06-05T04:22:34;32.00;28.20;16.40
49343;PMS5003;35210;41.606;-87.602;2023-06-05T04:25:03;25.00;25.00;15.60
49343;PMS5003;35210;41.606;-87.602;2023-06-05T04:27:33;26.60;25.60;14.80
49343;PMS5003;35210;41.606;-87.602;2023-06-05T04:30:01;28.40;26.00;17.00
49343;PMS5003;35210;41.606;-87.602;2023-06-05T04:32:30;25.40;20.40;15.00
49343;PMS5003;35210;41.606;-87.602;2023-06-05T04:35:00;27.80;25.60;16.60
49343;PMS5003;35210;41.606;-87.602;2023-06-05T04:37:28;29.40;23.80;14.40
49343;PMS5003;35210;41.606;-87.602;2023-06-05T04:39:56;33.00;30.80;17.20
49343;PMS5003;35210;41.606;-87.602;2023-06-05T04:42:25;30.00;26.60;15.20
49343;PMS5003;35210;41.606;-87.602;2023-06-05T04:44:57;30.60;28.80;17.80
49343;PMS5003;35210;41.606;-87.602;2023-06-05T04:47:27;41.80;34.20;20.20
49343;PMS5003;35210;41.606;-87.602;2023-06-05T04:49:57;36.40;32.40;20.00
49343;PMS5003;35210;41.606;-87.602;2023-06-05T04:52:26;36.00;32.80;18.80
49343;PMS5003;35210;41.606;-87.602;2023-06-05T04:54:54;37.60;33.40;21.80
49343;PMS5003;35210;41.606;-87.602;2023-06-05T04:57:23;40.25;36.25;22.00
49343;PMS5003;35210;41.606;-87.602;2023-06-05T04:59:52;43.00;35.50;21.75
49343;PMS5003;35210;41.606;-87.602;2023-06-05T05:02:23;38.50;33.00;20.25
49343;PMS5003;35210;41.606;-87.602;2023-06-05T05:04:52;38.40;33.20;20.40
49343;PMS5003;35210;41.606;-87.602;2023-06-05T05:07:20;38.60;32.80;19.80
49343;PMS5003;35210;41.606;-87.602;2023-06-05T05:09:49;35.20;33.40;20.00
49343;PMS5003;35210;41.606;-87.602;2023-06-05T05:12:17;34.60;31.20;18.20
49343;PMS5003;35210;41.606;-87.602;2023-06-05T05:14:45;34.20;30.00;18.00
49343;PMS5003;35210;41.606;-87.602;2023-06-05T05:17:15;35.20;31.60;16.20
49343;PMS5003;35210;41.606;-87.602;2023-06-05T05:19:45;34.60;31.20;19.40
49343;PMS5003;35210;41.606;-87.602;2023-06-05T05:22:13;30.00;28.50;12.75
49343;PMS5003;35210;41.606;-87.602;2023-06-05T05:24:41;39.20;33.00;20.60
49343;PMS5003;35210;41.606;-87.602;2023-06-05T05:27:09;36.60;30.20;17.20
49343;PMS5003;35210;41.606;-87.602;2023-06-05T05:29:37;33.20;32.00;19.00
49343;PMS5003;35210;41.606;-87.602;2023-06-05T05:32:05;37.20;34.00;20.20
49343;PMS5003;35210;41.606;-87.602;2023-06-05T05:34:35;31.40;31.20;18.60
49343;PMS5003;35210;41.606;-87.602;2023-06-05T05:37:05;35.00;31.20;17.80
49343;PMS5003;35210;41.606;-87.602;2023-06-05T05:39:33;37.75;33.75;20.25
49343;PMS5003;35210;41.606;-87.602;2023-06-05T05:42:01;34.60;31.40;18.20
49343;PMS5003;35210;41.606;-87.602;2023-06-05T05:44:30;30.00;29.20;17.80
49343;PMS5003;35210;41.606;-87.602;2023-06-05T05:46:58;35.40;32.20;20.20
49343;PMS5003;35210;41.606;-87.602;2023-06-05T05:49:26;34.60;30.80;17.00
49343;PMS5003;35210;41.606;-87.602;2023-06-05T05:51:56;26.20;25.60;14.60
49343;PMS5003;35210;41.606;-87.602;2023-06-05T05:54:24;33.20;28.20;16.80
49343;PMS5003;35210;41.606;-87.602;2023-06-05T05:56:53;31.80;30.00;16.20
49343;PMS5003;35210;41.606;-87.602;2023-06-05T05:59:22;31.80;31.20;16.00
49343;PMS5003;35210;41.606;-87.602;2023-06-05T06:01:50;36.80;32.40;17.80
49343;PMS5003;35210;41.606;-87.602;2023-06-05T06:04:18;30.60;28.80;17.40
49343;PMS5003;35210;41.606;-87.602;2023-06-05T06:06:47;34.80;30.80;17.00
49343;PMS5003;35210;41.606;-87.602;2023-06-05T06:09:19;33.60;31.20;18.20
49343;PMS5003;35210;41.606;-87.602;2023-06-05T06:11:48;34.20;29.60;17.40
49343;PMS5003;35210;41.606;-87.602;2023-06-05T06:14:17;39.50;34.50;20.25
49343;PMS5003;35210;41.606;-87.602;2023-06-05T06:16:45;40.25;34.00;20.50
49343;PMS5003;35210;41.606;-87.602;2023-06-05T06:19:13;40.50;36.00;20.25
49343;PMS5003;35210;41.606;-87.602;2023-06-05T06:21:41;35.60;32.60;18.60
49343;PMS5003;35210;41.606;-87.602;2023-06-05T06:24:09;27.40;20.80;16.80
49343;PMS5003;35210;41.606;-87.602;2023-06-05T06:26:42;36.60;31.00;17.40
49343;PMS5003;35210;41.606;-87.602;2023-06-05T06:29:10;36.60;30.80;18.00
49343;PMS5003;35210;41.606;-87.602;2023-06-05T06:31:41;28.60;28.00;19.40
49343;PMS5003;35210;41.606;-87.602;2023-06-05T06:34:09;35.00;31.80;19.60
49343;PMS5003;35210;41.606;-87.602;2023-06-05T06:36:37;32.80;29.60;19.20
49343;PMS5003;35210;41.606;-87.602;2023-06-05T06:39:06;35.20;31.40;18.40
49343;PMS5003;35210;41.606;-87.602;2023-06-05T06:41:35;36.20;33.20;19.60
49343;PMS5003;35210;41.606;-87.602;2023-06-05T06:44:05;39.40;33.40;20.00
49343;PMS5003;35210;41.606;-87.602;2023-06-05T06:46:33;26.40;22.00;15.40
49343;PMS5003;35210;41.606;-87.602;2023-06-05T06:49:01;28.60;28.60;17.40
49343;PMS5003;35210;41.606;-87.602;2023-06-05T06:51:31;31.20;28.80;15.80
49343;PMS5003;35210;41.606;-87.602;2023-06-05T06:53:59;36.60;31.60;17.20
49343;PMS5003;35210;41.606;-87.602;2023-06-05T06:56:28;33.20;31.40;16.40
49343;PMS5003;35210;41.606;-87.602;2023-06-05T06:58:56;30.60;28.60;16.00
49343;PMS5003;35210;41.606;-87.602;2023-06-05T07:01:25;32.40;29.40;17.00
49343;PMS5003;35210;41.606;-87.602;2023-06-05T07:03:54;38.60;34.40;21.00
49343;PMS5003;35210;41.606;-87.602;2023-06-05T07:06:22;46.50;36.50;21.75
49343;PMS5003;35210;41.606;-87.602;2023-06-05T07:08:50;46.00;37.50;23.25
49343;PMS5003;35210;41.606;-87.602;2023-06-05T07:11:18;48.25;39.25;25.50
49343;PMS5003;35210;41.606;-87.602;2023-06-05T07:13:47;51.00;42.25;26.50
49343;PMS5003;35210;41.606;-87.602;2023-06-05T07:16:15;51.25;42.25;27.75
49343;PMS5003;35210;41.606;-87.602;2023-06-05T07:18:46;42.25;34.50;23.00
49343;PMS5003;35210;41.606;-87.602;2023-06-05T07:21:16;51.25;39.25;23.25
49343;PMS5003;35210;41.606;-87.602;2023-06-05T07:23:47;46.25;39.25;23.25
49343;PMS5003;35210;41.606;-87.602;2023-06-05T07:26:17;53.00;43.50;27.25
49343;PMS5003;35210;41.606;-87.602;2023-06-05T07:28:45;51.75;42.25;25.75
49343;PMS5003;35210;41.606;-87.602;2023-06-05T07:31:14;47.50;37.75;24.25
49343;PMS5003;35210;41.606;-87.602;2023-06-05T07:33:43;48.25;37.50;24.25
49343;PMS5003;35210;41.606;-87.602;2023-06-05T07:36:13;49.25;40.25;24.50
49343;PMS5003;35210;41.606;-87.602;2023-06-05T07:38:41;46.75;37.25;24.50
49343;PMS5003;35210;41.606;-87.602;2023-06-05T07:41:10;47.50;40.25;25.00
49343;PMS5003;35210;41.606;-87.602;2023-06-05T07:43:38;39.50;36.50;25.25
49343;PMS5003;35210;41.606;-87.602;2023-06-05T07:46:07;46.00;38.00;25.25
49343;PMS5003;35210;41.606;-87.602;2023-06-05T07:48:35;45.75;37.50;23.50
49343;PMS5003;35210;41.606;-87.602;2023-06-05T07:51:03;44.75;37.25;24.50
49343;PMS5003;35210;41.606;-87.602;2023-06-05T07:53:35;43.75;35.50;23.00
49343;PMS5003;35210;41.606;-87.602;2023-06-05T07:56:05;40.50;35.75;21.75
49343;PMS5003;35210;41.606;-87.602;2023-06-05T07:58:33;47.25;37.25;22.75
49343;PMS5003;35210;41.606;-87.602;2023-06-05T08:01:02;38.50;35.25;23.25
49343;PMS5003;35210;41.606;-87.602;2023-06-05T08:03:32;40.00;34.75;22.75
49343;PMS5003;35210;41.606;-87.602;2023-06-05T08:06:03;33.60;28.80;20.20
49343;PMS5003;35210;41.606;-87.602;2023-06-05T08:08:31;36.20;32.20;19.00
49343;PMS5003;35210;41.606;-87.602;2023-06-05T08:11:00;44.00;35.75;22.50
49343;PMS5003;35210;41.606;-87.602;2023-06-05T08:13:29;41.75;36.75;21.75
49343;PMS5003;35210;41.606;-87.602;2023-06-05T08:15:57;36.20;33.40;21.40
49343;PMS5003;35210;41.606;-87.602;2023-06-05T08:18:25;44.00;35.00;21.25
49343;PMS5003;35210;41.606;-87.602;2023-06-05T08:20:53;41.60;36.40;21.80
49343;PMS5003;35210;41.606;-87.602;2023-06-05T08:23:21;37.50;33.25;20.75
49343;PMS5003;35210;41.606;-87.602;2023-06-05T08:25:50;37.75;35.75;21.25
49343;PMS5003;35210;41.606;-87.602;2023-06-05T08:28:19;38.75;35.50;22.25
49343;PMS5003;35210;41.606;-87.602;2023-06-05T08:30:48;46.50;38.00;22.50
49343;PMS5003;35210;41.606;-87.602;2023-06-05T08:33:17;45.60;39.20;24.00
49343;PMS5003;35210;41.606;-87.602;2023-06-05T08:35:45;45.75;37.00;21.50
49343;PMS5003;35210;41.606;-87.602;2023-06-05T08:38:13;43.00;37.00;21.25
49343;PMS5003;35210;41.606;-87.602;2023-06-05T08:40:41;33.75;32.25;21.25
49343;PMS5003;35210;41.606;-87.602;2023-06-05T08:43:14;37.25;34.00;23.50
49343;PMS5003;35210;41.606;-87.602;2023-06-05T08:45:43;46.00;40.25;25.25
49343;PMS5003;35210;41.606;-87.602;2023-06-05T08:48:12;52.75;42.50;25.75
49343;PMS5003;35210;41.606;-87.602;2023-06-05T08:50:44;44.00;37.00;21.25
49343;PMS5003;35210;41.606;-87.602;2023-06-05T08:53:12;48.75;40.00;25.50
49343;PMS5003;35210;41.606;-87.602;2023-06-05T08:55:43;46.50;40.25;24.00
49343;PMS5003;35210;41.606;-87.602;2023-06-05T08:58:13;54.00;42.75;24.50
49343;PMS5003;35210;41.606;-87.602;2023-06-05T09:00:43;45.50;37.50;25.25
49343;PMS5003;35210;41.606;-87.602;2023-06-05T09:03:14;41.00;33.25;20.00
49343;PMS5003;35210;41.606;-87.602;2023-06-05T09:05:46;40.75;34.75;22.75
49343;PMS5003;35210;41.606;-87.602;2023-06-05T09:08:14;48.50;38.50;23.75
49343;PMS5003;35210;41.606;-87.602;2023-06-05T09:10:43;41.00;33.25;21.50
49343;PMS5003;35210;41.606;-87.602;2023-06-05T09:13:13;47.25;38.50;24.25
49343;PMS5003;35210;41.606;-87.602;2023-06-05T09:15:41;45.75;36.25;23.25
49343;PMS5003;35210;41.606;-87.602;2023-06-05T09:18:17;39.25;33.75;22.00
49343;PMS5003;35210;41.606;-87.602;2023-06-05T09:20:49;45.75;39.50;23.75
49343;PMS5003;35210;41.606;-87.602;2023-06-05T09:23:21;42.00;35.00;23.00
49343;PMS5003;35210;41.606;-87.602;2023-06-05T09:25:52;43.75;35.50;20.00
49343;PMS5003;35210;41.606;-87.602;2023-06-05T09:28:21;45.25;38.00;23.50
49343;PMS5003;35210;41.606;-87.602;2023-06-05T09:30:57;39.75;35.50;22.75
49343;PMS5003;35210;41.606;-87.602;2023-06-05T09:33:27;42.75;36.00;24.00
49343;PMS5003;35210;41.606;-87.602;2023-06-05T09:36:04;47.25;37.50;23.25
49343;PMS5003;35210;41.606;-87.602;2023-06-05T09:38:34;40.25;34.50;20.50
49343;PMS5003;35210;41.606;-87.602;2023-06-05T09:41:05;38.75;36.00;20.75
49343;PMS5003;35210;41.606;-87.602;2023-06-05T09:43:34;44.75;36.25;23.25
49343;PMS5003;35210;41.606;-87.602;2023-06-05T09:46:09;44.00;35.50;21.50
49343;PMS5003;35210;41.606;-87.602;2023-06-05T09:48:37;45.25;36.75;22.75
49343;PMS5003;35210;41.606;-87.602;2023-06-05T09:51:09;43.25;37.50;23.25
49343;PMS5003;35210;41.606;-87.602;2023-06-05T09:53:41;38.00;32.00;18.80
49343;PMS5003;35210;41.606;-87.602;2023-06-05T09:56:11;44.50;36.50;23.50
49343;PMS5003;35210;41.606;-87.602;2023-06-05T09:58:43;45.50;37.50;22.75
49343;PMS5003;35210;41.606;-87.602;2023-06-05T10:01:15;45.50;38.25;23.25
49343;PMS5003;35210;41.606;-87.602;2023-06-05T10:03:48;41.50;34.50;20.00
49343;PMS5003;35210;41.606;-87.602;2023-06-05T10:06:20;45.25;38.25;23.25
49343;PMS5003;35210;41.606;-87.602;2023-06-05T10:08:50;42.50;37.50;21.50
49343;PMS5003;35210;41.606;-87.602;2023-06-05T10:11:21;36.25;33.00;20.75
49343;PMS5003;35210;41.606;-87.602;2023-06-05T10:13:50;47.00;37.50;22.00
49343;PMS5003;35210;41.606;-87.602;2023-06-05T10:16:21;41.60;34.40;21.00
49343;PMS5003;35210;41.606;-87.602;2023-06-05T10:18:49;41.20;36.60;21.40
49343;PMS5003;35210;41.606;-87.602;2023-06-05T10:21:18;46.50;38.50;22.25
49343;PMS5003;35210;41.606;-87.602;2023-06-05T10:23:48;43.40;37.20;23.40
49343;PMS5003;35210;41.606;-87.602;2023-06-05T10:26:22;44.50;36.25;21.50
49343;PMS5003;35210;41.606;-87.602;2023-06-05T10:29:08;35.75;33.50;20.75
49343;PMS5003;35210;41.606;-87.602;2023-06-05T10:31:57;39.50;35.50;20.25
49343;PMS5003;35210;41.606;-87.602;2023-06-05T10:34:32;42.00;36.00;22.25
49343;PMS5003;35210;41.606;-87.602;2023-06-05T10:37:23;44.00;37.50;22.00
49343;PMS5003;35210;41.606;-87.602;2023-06-05T10:40:03;37.75;34.00;18.75
49343;PMS5003;35210;41.606;-87.602;2023-06-05T10:42:32;39.50;36.50;22.25
49343;PMS5003;35210;41.606;-87.602;2023-06-05T10:45:00;45.75;38.00;23.00
49343;PMS5003;35210;41.606;-87.602;2023-06-05T10:50:28;55.00;43.25;25.00
49343;PMS5003;35210;41.606;-87.602;2023-06-05T10:52:58;58.00;46.00;27.50
49343;PMS5003;35210;41.606;-87.602;2023-06-05T10:55:26;55.75;45.00;28.00
49343;PMS5003;35210;41.606;-87.602;2023-06-05T10:58:09;62.00;48.50;28.00
49343;PMS5003;35210;41.606;-87.602;2023-06-05T11:03:57;59.25;46.00;28.25
49343;PMS5003;35210;41.606;-87.602;2023-06-05T11:06:26;56.25;45.50;28.50
49343;PMS5003;35210;41.606;-87.602;2023-06-05T11:09:10;62.75;46.00;29.50
49343;PMS5003;35210;41.606;-87.602;2023-06-05T11:11:56;48.25;37.75;24.00
49343;PMS5003;35210;41.606;-87.602;2023-06-05T11:14:25;53.25;45.00;27.25
49343;PMS5003;35210;41.606;-87.602;2023-06-05T11:17:25;50.25;40.25;24.50
49343;PMS5003;35210;41.606;-87.602;2023-06-05T11:19:56;47.00;39.00;21.25
49343;PMS5003;35210;41.606;-87.602;2023-06-05T11:22:24;50.25;38.75;23.50
49343;PMS5003;35210;41.606;-87.602;2023-06-05T11:27:54;48.50;40.00;25.75
49343;PMS5003;35210;41.606;-87.602;2023-06-05T11:30:25;33.60;30.00;17.80
49343;PMS5003;35210;41.606;-87.602;2023-06-05T11:32:57;38.40;33.40;20.20
49343;PMS5003;35210;41.606;-87.602;2023-06-05T11:35:35;34.60;31.60;18.80
49343;PMS5003;35210;41.606;-87.602;2023-06-05T11:38:07;36.80;31.20;19.00
49343;PMS5003;35210;41.606;-87.602;2023-06-05T11:40:36;39.20;35.40;20.00
49343;PMS5003;35210;41.606;-87.602;2023-06-05T11:43:08;42.00;35.00;21.20
49343;PMS5003;35210;41.606;-87.602;2023-06-05T11:45:38;38.00;32.40;19.40
49343;PMS5003;35210;41.606;-87.602;2023-06-05T11:48:08;38.80;31.20;17.20
49343;PMS5003;35210;41.606;-87.602;2023-06-05T11:50:39;42.00;37.75;22.75
49343;PMS5003;35210;41.606;-87.602;2023-06-05T11:53:19;37.75;33.00;15.75
49343;PMS5003;35210;41.606;-87.602;2023-06-05T11:55:49;41.80;34.20;22.40
49343;PMS5003;35210;41.606;-87.602;2023-06-05T11:58:34;38.40;31.80;21.60
49343;PMS5003;35210;41.606;-87.602;2023-06-05T12:01:03;27.40;25.40;16.80
49343;PMS5003;35210;41.606;-87.602;2023-06-05T12:03:33;38.50;34.00;20.25
49343;PMS5003;35210;41.606;-87.602;2023-06-05T12:06:03;43.20;35.40;20.20
49343;PMS5003;35210;41.606;-87.602;2023-06-05T12:08:31;38.60;33.80;21.00
49343;PMS5003;35210;41.606;-87.602;2023-06-05T12:11:02;42.80;35.80;21.60
49343;PMS5003;35210;41.606;-87.602;2023-06-05T12:13:46;37.25;33.75;17.25
49343;PMS5003;35210;41.606;-87.602;2023-06-05T12:16:15;45.25;37.50;23.25
49343;PMS5003;35210;41.606;-87.602;2023-06-05T12:18:44;43.25;37.50;23.00
49343;PMS5003;35210;41.606;-87.602;2023-06-05T12:21:23;39.00;34.25;20.25
49343;PMS5003;35210;41.606;-87.602;2023-06-05T12:23:59;45.50;36.00;23.00
49343;PMS5003;35210;41.606;-87.602;2023-06-05T12:26:28;47.25;38.75;22.25
49343;PMS5003;35210;41.606;-87.602;2023-06-05T12:29:02;46.00;37.00;22.50
49343;PMS5003;35210;41.606;-87.602;2023-06-05T12:31:31;37.60;33.40;19.20
49343;PMS5003;35210;41.606;-87.602;2023-06-05T12:34:02;44.75;36.00;23.00
49343;PMS5003;35210;41.606;-87.602;2023-06-05T12:36:32;42.60;36.20;20.80
49343;PMS5003;35210;41.606;-87.602;2023-06-05T12:39:06;40.00;32.60;16.40
49343;PMS5003;35210;41.606;-87.602;2023-06-05T12:41:36;36.00;32.40;20.20
49343;PMS5003;35210;41.606;-87.602;2023-06-05T12:44:05;42.25;35.75;22.25
49343;PMS5003;35210;41.606;-87.602;2023-06-05T12:46:34;37.20;35.40;22.20
49343;PMS5003;35210;41.606;-87.602;2023-06-05T12:49:03;38.60;33.60;20.80
49343;PMS5003;35210;41.606;-87.602;2023-06-05T12:51:34;40.00;33.60;20.20
49343;PMS5003;35210;41.606;-87.602;2023-06-05T12:54:02;35.40;31.80;17.60
49343;PMS5003;35210;41.606;-87.602;2023-06-05T12:56:30;34.40;32.60;20.00
49343;PMS5003;35210;41.606;-87.602;2023-06-05T12:59:01;29.00;27.00;15.60
49343;PMS5003;35210;41.606;-87.602;2023-06-05T13:01:29;36.60;32.60;20.20
49343;PMS5003;35210;41.606;-87.602;2023-06-05T13:03:57;35.20;32.40;18.00
49343;PMS5003;35210;41.606;-87.602;2023-06-05T13:06:25;33.40;31.80;18.00
49343;PMS5003;35210;41.606;-87.602;2023-06-05T13:08:55;28.80;27.40;18.20
49343;PMS5003;35210;41.606;-87.602;2023-06-05T13:11:24;36.00;30.20;18.20
49343;PMS5003;35210;41.606;-87.602;2023-06-05T13:13:53;34.20;27.60;17.20
49343;PMS5003;35210;41.606;-87.602;2023-06-05T13:16:21;30.40;26.00;17.20
49343;PMS5003;35210;41.606;-87.602;2023-06-05T13:18:50;24.80;23.60;12.80
49343;PMS5003;35210;41.606;-87.602;2023-06-05T13:21:18;28.00;26.60;16.60
49343;PMS5003;35210;41.606;-87.602;2023-06-05T13:23:46;26.00;24.40;16.00
49343;PMS5003;35210;41.606;-87.602;2023-06-05T13:26:15;17.60;16.80;10.40
49343;PMS5003;35210;41.606;-87.602;2023-06-05T13:28:43;23.20;21.80;14.60
49343;PMS5003;35210;41.606;-87.602;2023-06-05T13:31:13;22.20;20.60;13.60
49343;PMS5003;35210;41.606;-87.602;2023-06-05T13:33:43;23.60;20.00;13.20
49343;PMS5003;35210;41.606;-87.602;2023-06-05T13:36:11;21.80;21.80;11.60
49343;PMS5003;35210;41.606;-87.602;2023-06-05T13:38:39;25.00;18.40;10.80
49343;PMS5003;35210;41.606;-87.602;2023-06-05T13:41:08;25.40;21.40;13.60
49343;PMS5003;35210;41.606;-87.602;2023-06-05T13:43:38;21.40;19.40;11.20
49343;PMS5003;35210;41.606;-87.602;2023-06-05T13:46:06;25.60;22.60;14.40
49343;PMS5003;35210;41.606;-87.602;2023-06-05T13:48:34;24.20;22.80;13.40